sensor_id;sensor_type;location;lat;lon;timestamp;pressure;altitude;pressure_sealevel;temperature;humidity
66486;BME280;53303;47.476;8.084;2024-02-21T00:00:55;96314.63;;;19.46;44.06
66486;BME280;53303;47.476;8.084;2024-02-21T00:03:20;96321.75;;;19.53;44.07
66486;BME280;53303;47.476;8.084;2024-02-21T00:05:46;96320.72;;;19.50;44.08
66486;BME280;53303;47.476;8.084;2024-02-21T00:08:13;96329.38;;;19.58;44.01
66486;BME280;53303;47.476;8.084;2024-02-21T00:10:41;96306.13;;;19.50;44.09
66486;BME280;53303;47.476;8.084;2024-02-21T00:13:06;96302.59;;;19.49;44.06
66486;BME280;53303;47.476;8.084;2024-02-21T00:15:32;96307.16;;;19.52;43.94
66486;BME280;53303;47.476;8.084;2024-02-21T00:17:57;96319.53;;;19.57;44.15
66486;BME280;53303;47.476;8.084;2024-02-21T00:20:25;96298.59;;;19.50;44.15
66486;BME280;53303;47.476;8.084;2024-02-21T00:22:51;96299.88;;;19.55;44.01
66486;BME280;53303;47.476;8.084;2024-02-21T00:25:16;96297.06;;;19.49;44.17
66486;BME280;53303;47.476;8.084;2024-02-21T00:27:42;96293.53;;;19.49;43.93
66486;BME280;53303;47.476;8.084;2024-02-21T00:30:08;96298.66;;;19.56;43.90
66486;BME280;53303;47.476;8.084;2024-02-21T00:32:36;96277.69;;;19.49;43.98
66486;BME280;53303;47.476;8.084;2024-02-21T00:35:02;96282.81;;;19.56;44.07
66486;BME280;53303;47.476;8.084;2024-02-21T00:37:31;96272.22;;;19.55;43.92
66486;BME280;53303;47.476;8.084;2024-02-21T00:39:56;96267.94;;;19.54;44.10
66486;BME280;53303;47.476;8.084;2024-02-21T00:42:22;96277.00;;;19.54;43.96
66486;BME280;53303;47.476;8.084;2024-02-21T00:44:47;96277.47;;;19.53;43.95
66486;BME280;53303;47.476;8.084;2024-02-21T00:47:13;96269.38;;;19.49;44.08
66486;BME280;53303;47.476;8.084;2024-02-21T00:49:38;96279.22;;;19.50;44.10
66486;BME280;53303;47.476;8.084;2024-02-21T00:52:03;96264.25;;;19.42;43.93
66486;BME280;53303;47.476;8.084;2024-02-21T00:54:29;96283.00;;;19.53;44.09
66486;BME280;53303;47.476;8.084;2024-02-21T00:56:54;96277.19;;;19.51;44.02
66486;BME280;53303;47.476;8.084;2024-02-21T00:59:20;96275.38;;;19.48;44.36
66486;BME280;53303;47.476;8.084;2024-02-21T01:01:45;96274.16;;;19.49;43.99
66486;BME280;53303;47.476;8.084;2024-02-21T01:04:10;96279.97;;;19.51;43.97
66486;BME280;53303;47.476;8.084;2024-02-21T01:06:36;96266.34;;;19.47;43.90
66486;BME280;53303;47.476;8.084;2024-02-21T01:09:01;96279.50;;;19.52;44.21
66486;BME280;53303;47.476;8.084;2024-02-21T01:11:27;96282.72;;;19.51;44.22
66486;BME280;53303;47.476;8.084;2024-02-21T01:13:52;96270.59;;;19.48;44.17
66486;BME280;53303;47.476;8.084;2024-02-21T01:16:18;96274.16;;;19.49;44.12
66486;BME280;53303;47.476;8.084;2024-02-21T01:18:43;96273.69;;;19.50;43.97
66486;BME280;53303;47.476;8.084;2024-02-21T01:21:11;96266.34;;;19.47;44.00
66486;BME280;53303;47.476;8.084;2024-02-21T01:23:39;96283.97;;;19.50;44.06
66486;BME280;53303;47.476;8.084;2024-02-21T01:26:04;96273.88;;;19.47;44.17
66486;BME280;53303;47.476;8.084;2024-02-21T01:28:34;96276.91;;;19.49;43.97
66486;BME280;53303;47.476;8.084;2024-02-21T01:31:00;96275.38;;;19.48;43.92
66486;BME280;53303;47.476;8.084;2024-02-21T01:33:28;96270.91;;;19.50;44.12
66486;BME280;53303;47.476;8.084;2024-02-21T01:36:00;96264.03;;;19.46;44.15
66486;BME280;53303;47.476;8.084;2024-02-21T01:38:25;96254.31;;;19.50;44.11
66486;BME280;53303;47.476;8.084;2024-02-21T01:40:50;96244.66;;;19.46;44.01
66486;BME280;53303;47.476;8.084;2024-02-21T01:43:19;96239.13;;;19.46;44.07
66486;BME280;53303;47.476;8.084;2024-02-21T01:45:55;96231.09;;;19.48;44.11
66486;BME280;53303;47.476;8.084;2024-02-21T01:48:25;96236.16;;;19.49;44.10
66486;BME280;53303;47.476;8.084;2024-02-21T01:50:51;96226.63;;;19.50;44.22
66486;BME280;53303;47.476;8.084;2024-02-21T01:53:23;96219.75;;;19.46;44.01
66486;BME280;53303;47.476;8.084;2024-02-21T01:55:53;96206.59;;;19.40;43.97
66486;BME280;53303;47.476;8.084;2024-02-21T01:58:21;96213.25;;;19.49;44.22
66486;BME280;53303;47.476;8.084;2024-02-21T02:00:50;96205.72;;;19.49;44.16
66486;BME280;53303;47.476;8.084;2024-02-21T02:03:15;96187.78;;;19.45;43.86
66486;BME280;53303;47.476;8.084;2024-02-21T02:05:44;96188.09;;;19.47;44.30
66486;BME280;53303;47.476;8.084;2024-02-21T02:08:14;96185.59;;;19.49;44.15
66486;BME280;53303;47.476;8.084;2024-02-21T02:10:40;96178.50;;;19.48;44.32
66486;BME280;53303;47.476;8.084;2024-02-21T02:13:06;96164.63;;;19.42;44.46
66486;BME280;53303;47.476;8.084;2024-02-21T02:15:42;96164.41;;;19.46;44.24
66486;BME280;53303;47.476;8.084;2024-02-21T02:18:10;96169.19;;;19.45;44.21
66486;BME280;53303;47.476;8.084;2024-02-21T02:20:36;96171.94;;;19.45;44.26
66486;BME280;53303;47.476;8.084;2024-02-21T02:23:30;96174.44;;;19.43;44.21
66486;BME280;53303;47.476;8.084;2024-02-21T02:26:01;96159.06;;;19.42;43.91
66486;BME280;53303;47.476;8.084;2024-02-21T02:28:37;96162.13;;;19.44;44.31
66486;BME280;53303;47.476;8.084;2024-02-21T02:31:02;96156.78;;;19.40;44.20
66486;BME280;53303;47.476;8.084;2024-02-21T02:33:28;96167.16;;;19.46;44.40
66486;BME280;53303;47.476;8.084;2024-02-21T02:35:53;96155.84;;;19.44;44.42
66486;BME280;53303;47.476;8.084;2024-02-21T02:38:18;96153.06;;;19.44;44.29
66486;BME280;53303;47.476;8.084;2024-02-21T02:40:44;96146.00;;;19.43;44.25
66486;BME280;53303;47.476;8.084;2024-02-21T02:43:09;96143.50;;;19.45;44.42
66486;BME280;53303;47.476;8.084;2024-02-21T02:45:35;96145.50;;;19.44;44.31
66486;BME280;53303;47.476;8.084;2024-02-21T02:48:00;96140.19;;;19.40;44.22
66486;BME280;53303;47.476;8.084;2024-02-21T02:50:31;96132.56;;;19.35;44.38
66486;BME280;53303;47.476;8.084;2024-02-21T02:52:56;96131.63;;;19.38;44.21
66486;BME280;53303;47.476;8.084;2024-02-21T02:55:22;96139.22;;;19.44;44.35
66486;BME280;53303;47.476;8.084;2024-02-21T02:57:49;96127.88;;;19.42;44.26
66486;BME280;53303;47.476;8.084;2024-02-21T03:00:15;96125.38;;;19.44;44.40
66486;BME280;53303;47.476;8.084;2024-02-21T03:02:45;96095.63;;;19.38;44.23
66486;BME280;53303;47.476;8.084;2024-02-21T03:05:13;96099.72;;;19.43;44.36
66486;BME280;53303;47.476;8.084;2024-02-21T03:07:42;96092.88;;;19.38;44.44
66486;BME280;53303;47.476;8.084;2024-02-21T03:10:09;96098.69;;;19.40;44.35
66486;BME280;53303;47.476;8.084;2024-02-21T03:12:34;96093.41;;;19.43;44.15
66486;BME280;53303;47.476;8.084;2024-02-21T03:15:02;96093.88;;;19.41;44.42
66486;BME280;53303;47.476;8.084;2024-02-21T03:17:28;96095.44;;;19.42;44.48
66486;BME280;53303;47.476;8.084;2024-02-21T03:19:53;96084.34;;;19.42;44.39
66486;BME280;53303;47.476;8.084;2024-02-21T03:22:20;96084.34;;;19.42;44.35
66486;BME280;53303;47.476;8.084;2024-02-21T03:24:46;96080.84;;;19.42;44.48
66486;BME280;53303;47.476;8.084;2024-02-21T03:27:11;96079.56;;;19.43;44.28
66486;BME280;53303;47.476;8.084;2024-02-21T03:29:40;96072.53;;;19.42;44.30
66486;BME280;53303;47.476;8.084;2024-02-21T03:32:05;96064.22;;;19.42;44.88
66486;BME280;53303;47.476;8.084;2024-02-21T03:34:31;96059.41;;;19.36;44.37
66486;BME280;53303;47.476;8.084;2024-02-21T03:36:56;96058.13;;;19.37;44.30
66486;BME280;53303;47.476;8.084;2024-02-21T03:39:21;96056.91;;;19.38;44.39
66486;BME280;53303;47.476;8.084;2024-02-21T03:41:49;96045.56;;;19.36;44.43
66486;BME280;53303;47.476;8.084;2024-02-21T03:44:14;96051.63;;;19.40;44.50
66486;BME280;53303;47.476;8.084;2024-02-21T03:46:42;96054.41;;;19.40;44.47
66486;BME280;53303;47.476;8.084;2024-02-21T03:49:07;96050.34;;;19.36;44.51
66486;BME280;53303;47.476;8.084;2024-02-21T03:51:33;96055.09;;;19.35;44.38
66486;BME280;53303;47.476;8.084;2024-02-21T03:53:58;96071.47;;;19.39;44.48
66486;BME280;53303;47.476;8.084;2024-02-21T03:56:24;96061.13;;;19.34;44.43
66486;BME280;53303;47.476;8.084;2024-02-21T03:58:50;96060.41;;;19.39;44.35
66486;BME280;53303;47.476;8.084;2024-02-21T04:01:15;96063.19;;;19.39;44.58
66486;BME280;53303;47.476;8.084;2024-02-21T04:03:42;96053.88;;;19.36;44.29
66486;BME280;53303;47.476;8.084;2024-02-21T04:06:08;96039.53;;;19.38;44.59
66486;BME280;53303;47.476;8.084;2024-02-21T04:08:33;96029.44;;;19.35;44.46
66486;BME280;53303;47.476;8.084;2024-02-21T04:11:01;96035.47;;;19.33;44.71
66486;BME280;53303;47.476;8.084;2024-02-21T04:13:27;96047.56;;;19.36;44.52
66486;BME280;53303;47.476;8.084;2024-02-21T04:15:52;96044.28;;;19.37;44.61
66486;BME280;53303;47.476;8.084;2024-02-21T04:18:18;96042.53;;;19.34;44.45
66486;BME280;53303;47.476;8.084;2024-02-21T04:20:43;96045.06;;;19.38;44.45
66486;BME280;53303;47.476;8.084;2024-02-21T04:23:11;96037.97;;;19.31;44.55
66486;BME280;53303;47.476;8.084;2024-02-21T04:25:41;96037.75;;;19.35;44.45
66486;BME280;53303;47.476;8.084;2024-02-21T04:28:07;96028.94;;;19.36;44.48
66486;BME280;53303;47.476;8.084;2024-02-21T04:30:32;96024.66;;;19.35;44.39
66486;BME280;53303;47.476;8.084;2024-02-21T04:32:57;96002.47;;;19.30;44.58
66486;BME280;53303;47.476;8.084;2024-02-21T04:35:25;96022.66;;;19.36;44.71
66486;BME280;53303;47.476;8.084;2024-02-21T04:37:51;96015.81;;;19.31;44.48
66486;BME280;53303;47.476;8.084;2024-02-21T04:40:16;96021.13;;;19.35;44.59
66486;BME280;53303;47.476;8.084;2024-02-21T04:42:42;96016.34;;;19.35;44.27
66486;BME280;53303;47.476;8.084;2024-02-21T04:45:08;95993.69;;;19.31;44.58
66486;BME280;53303;47.476;8.084;2024-02-21T04:47:36;96001.78;;;19.35;44.56
66486;BME280;53303;47.476;8.084;2024-02-21T04:50:01;95988.16;;;19.31;44.53
66486;BME280;53303;47.476;8.084;2024-02-21T04:52:29;95988.16;;;19.31;44.77
66486;BME280;53303;47.476;8.084;2024-02-21T04:54:58;95993.19;;;19.33;44.50
66486;BME280;53303;47.476;8.084;2024-02-21T04:57:23;95986.34;;;19.28;44.66
66486;BME280;53303;47.476;8.084;2024-02-21T04:59:52;95997.47;;;19.34;44.53
66486;BME280;53303;47.476;8.084;2024-02-21T05:02:18;95991.66;;;19.32;44.58
66486;BME280;53303;47.476;8.084;2024-02-21T05:04:47;95989.91;;;19.29;44.27
66486;BME280;53303;47.476;8.084;2024-02-21T05:07:13;95994.66;;;19.28;44.13
66486;BME280;53303;47.476;8.084;2024-02-21T05:09:42;95997.69;;;19.30;43.84
66486;BME280;53303;47.476;8.084;2024-02-21T05:12:07;95996.19;;;19.29;42.84
66486;BME280;53303;47.476;8.084;2024-02-21T05:14:33;95993.91;;;19.28;41.83
66486;BME280;53303;47.476;8.084;2024-02-21T05:16:58;95987.63;;;19.27;41.27
66486;BME280;53303;47.476;8.084;2024-02-21T05:19:26;95982.03;;;19.21;41.47
66486;BME280;53303;47.476;8.084;2024-02-21T05:21:53;95988.31;;;19.22;41.65
66486;BME280;53303;47.476;8.084;2024-02-21T05:24:19;95979.75;;;19.20;41.85
66486;BME280;53303;47.476;8.084;2024-02-21T05:26:49;95968.69;;;19.20;41.83
66486;BME280;53303;47.476;8.084;2024-02-21T05:29:14;95966.63;;;19.15;41.70
66486;BME280;53303;47.476;8.084;2024-02-21T05:34:18;95949.75;;;19.13;42.12
66486;BME280;53303;47.476;8.084;2024-02-21T05:36:46;95945.47;;;19.12;42.08
66486;BME280;53303;47.476;8.084;2024-02-21T05:39:12;95949.25;;;19.14;42.19
66486;BME280;53303;47.476;8.084;2024-02-21T05:41:37;95955.28;;;19.13;42.34
66486;BME280;53303;47.476;8.084;2024-02-21T05:44:03;95945.72;;;19.14;42.39
66486;BME280;53303;47.476;8.084;2024-02-21T05:46:28;95939.94;;;19.12;42.36
66486;BME280;53303;47.476;8.084;2024-02-21T05:48:56;95935.94;;;19.13;42.49
66486;BME280;53303;47.476;8.084;2024-02-21T05:51:21;95939.94;;;19.12;42.66
66486;BME280;53303;47.476;8.084;2024-02-21T05:53:47;95941.69;;;19.09;42.62
66486;BME280;53303;47.476;8.084;2024-02-21T05:56:13;95933.81;;;19.02;42.82
66486;BME280;53303;47.476;8.084;2024-02-21T05:58:39;95938.63;;;19.07;42.70
66486;BME280;53303;47.476;8.084;2024-02-21T06:01:04;95939.66;;;19.10;42.86
66486;BME280;53303;47.476;8.084;2024-02-21T06:03:32;95939.41;;;19.08;42.91
66486;BME280;53303;47.476;8.084;2024-02-21T06:06:00;95934.63;;;19.08;42.75
66486;BME280;53303;47.476;8.084;2024-02-21T06:08:28;95930.31;;;19.07;42.97
66486;BME280;53303;47.476;8.084;2024-02-21T06:10:53;95940.16;;;19.08;43.03
66486;BME280;53303;47.476;8.084;2024-02-21T06:13:20;95924.78;;;19.07;42.92
66486;BME280;53303;47.476;8.084;2024-02-21T06:15:49;95926.31;;;19.08;43.16
66486;BME280;53303;47.476;8.084;2024-02-21T06:18:18;95926.31;;;19.08;43.18
66486;BME280;53303;47.476;8.084;2024-02-21T06:20:44;95928.34;;;19.08;43.29
66486;BME280;53303;47.476;8.084;2024-02-21T06:23:12;95931.09;;;19.08;43.27
66486;BME280;53303;47.476;8.084;2024-02-21T06:25:38;95925.50;;;19.02;43.31
66486;BME280;53303;47.476;8.084;2024-02-21T06:28:05;95930.31;;;19.07;43.46
66486;BME280;53303;47.476;8.084;2024-02-21T06:30:30;95923.28;;;19.06;43.31
66486;BME280;53303;47.476;8.084;2024-02-21T06:32:56;95917.72;;;19.00;43.46
66486;BME280;53303;47.476;8.084;2024-02-21T06:35:21;95921.97;;;19.01;43.38
66486;BME280;53303;47.476;8.084;2024-02-21T06:37:49;95931.59;;;19.06;43.36
66486;BME280;53303;47.476;8.084;2024-02-21T06:40:20;95928.56;;;19.04;43.64
66486;BME280;53303;47.476;8.084;2024-02-21T06:42:48;95935.59;;;19.05;43.46
66486;BME280;53303;47.476;8.084;2024-02-21T06:45:14;95943.88;;;19.05;43.59
66486;BME280;53303;47.476;8.084;2024-02-21T06:47:45;95939.34;;;19.02;43.69
66486;BME280;53303;47.476;8.084;2024-02-21T06:50:10;95943.63;;;19.03;43.60
66486;BME280;53303;47.476;8.084;2024-02-21T06:52:36;95936.06;;;19.03;43.45
66486;BME280;53303;47.476;8.084;2024-02-21T06:55:02;95938.34;;;19.05;43.62
66486;BME280;53303;47.476;8.084;2024-02-21T06:57:30;95928.50;;;18.98;43.59
66486;BME280;53303;47.476;8.084;2024-02-21T06:59:55;95940.31;;;18.99;43.69
66486;BME280;53303;47.476;8.084;2024-02-21T07:02:21;95936.78;;;18.98;43.60
66486;BME280;53303;47.476;8.084;2024-02-21T07:04:46;95948.88;;;19.01;43.72
66486;BME280;53303;47.476;8.084;2024-02-21T07:07:12;95939.34;;;19.02;43.93
66486;BME280;53303;47.476;8.084;2024-02-21T07:09:38;95941.34;;;19.01;43.73
66486;BME280;53303;47.476;8.084;2024-02-21T07:12:04;95935.00;;;18.95;43.90
66486;BME280;53303;47.476;8.084;2024-02-21T07:14:32;95940.59;;;19.01;43.79
66486;BME280;53303;47.476;8.084;2024-02-21T07:16:57;95934.56;;;19.02;43.92
66486;BME280;53303;47.476;8.084;2024-02-21T07:19:23;95939.56;;;18.98;43.74
66486;BME280;53303;47.476;8.084;2024-02-21T07:21:48;95925.72;;;18.98;43.88
66486;BME280;53303;47.476;8.084;2024-02-21T07:24:14;95916.66;;;18.98;43.89
66486;BME280;53303;47.476;8.084;2024-02-21T07:26:43;95917.72;;;19.00;43.88
66486;BME280;53303;47.476;8.084;2024-02-21T07:29:08;95922.97;;;18.98;43.95
66486;BME280;53303;47.476;8.084;2024-02-21T07:31:43;95921.66;;;18.94;43.93
66486;BME280;53303;47.476;8.084;2024-02-21T07:34:12;95925.44;;;18.96;43.95
66486;BME280;53303;47.476;8.084;2024-02-21T07:36:38;95927.50;;;19.01;44.00
66486;BME280;53303;47.476;8.084;2024-02-21T07:39:04;95922.75;;;19.02;43.85
66486;BME280;53303;47.476;8.084;2024-02-21T07:41:32;95918.94;;;18.99;44.06
66486;BME280;53303;47.476;8.084;2024-02-21T07:44:01;95923.22;;;19.00;44.06
66486;BME280;53303;47.476;8.084;2024-02-21T07:46:28;95912.66;;;18.99;44.12
66486;BME280;53303;47.476;8.084;2024-02-21T07:48:53;95912.88;;;18.95;44.12
66486;BME280;53303;47.476;8.084;2024-02-21T07:51:19;95906.38;;;18.98;44.26
66486;BME280;53303;47.476;8.084;2024-02-21T07:53:45;95892.00;;;18.94;44.21
66486;BME280;53303;47.476;8.084;2024-02-21T07:56:11;95888.25;;;18.97;44.20
66486;BME280;53303;47.476;8.084;2024-02-21T07:58:37;95887.28;;;19.00;44.13
66486;BME280;53303;47.476;8.084;2024-02-21T08:01:02;95884.25;;;18.98;44.19
66486;BME280;53303;47.476;8.084;2024-02-21T08:03:28;95874.16;;;18.95;44.40
66486;BME280;53303;47.476;8.084;2024-02-21T08:05:53;95885.00;;;18.99;44.23
66486;BME280;53303;47.476;8.084;2024-02-21T08:08:21;95873.19;;;18.98;44.34
66486;BME280;53303;47.476;8.084;2024-02-21T08:10:48;95866.88;;;18.98;44.11
66486;BME280;53303;47.476;8.084;2024-02-21T08:13:14;95857.56;;;18.95;44.19
66486;BME280;53303;47.476;8.084;2024-02-21T08:15:41;95855.78;;;18.92;44.35
66486;BME280;53303;47.476;8.084;2024-02-21T08:18:07;95864.69;;;19.02;44.22
66486;BME280;53303;47.476;8.084;2024-02-21T08:20:32;95856.31;;;18.96;44.06
66486;BME280;53303;47.476;8.084;2024-02-21T08:22:58;95847.47;;;18.92;44.03
66486;BME280;53303;47.476;8.084;2024-02-21T08:25:23;95840.97;;;18.95;44.27
66486;BME280;53303;47.476;8.084;2024-02-21T08:27:49;95847.03;;;18.99;44.39
66486;BME280;53303;47.476;8.084;2024-02-21T08:30:19;95847.78;;;19.00;44.07
66486;BME280;53303;47.476;8.084;2024-02-21T08:32:46;95848.56;;;19.00;44.20
66486;BME280;53303;47.476;8.084;2024-02-21T08:35:15;95855.34;;;18.99;44.12
66486;BME280;53303;47.476;8.084;2024-02-21T08:37:43;95851.06;;;18.98;44.22
66486;BME280;53303;47.476;8.084;2024-02-21T08:40:10;95847.75;;;18.94;44.06
66486;BME280;53303;47.476;8.084;2024-02-21T08:42:36;95846.78;;;18.97;44.08
66486;BME280;53303;47.476;8.084;2024-02-21T08:45:03;95852.84;;;19.01;44.00
66486;BME280;53303;47.476;8.084;2024-02-21T08:47:28;95851.34;;;19.00;44.17
66486;BME280;53303;47.476;8.084;2024-02-21T08:49:56;95847.53;;;18.98;43.89
66486;BME280;53303;47.476;8.084;2024-02-21T08:52:21;95849.81;;;18.99;43.98
66486;BME280;53303;47.476;8.084;2024-02-21T08:54:47;95845.03;;;19.00;44.05
66486;BME280;53303;47.476;8.084;2024-02-21T08:57:12;95841.72;;;18.96;44.15
66486;BME280;53303;47.476;8.084;2024-02-21T08:59:39;95836.41;;;18.92;43.96
66486;BME280;53303;47.476;8.084;2024-02-21T09:02:04;95847.03;;;18.99;44.06
66486;BME280;53303;47.476;8.084;2024-02-21T09:04:32;95847.78;;;19.00;43.96
66486;BME280;53303;47.476;8.084;2024-02-21T09:06:58;95847.78;;;19.00;43.75
66486;BME280;53303;47.476;8.084;2024-02-21T09:09:26;95840.00;;;18.98;44.01
66486;BME280;53303;47.476;8.084;2024-02-21T09:11:54;95841.78;;;19.01;43.93
66486;BME280;53303;47.476;8.084;2024-02-21T09:14:19;95824.66;;;18.97;43.87
66486;BME280;53303;47.476;8.084;2024-02-21T09:16:49;95826.69;;;19.02;43.82
66486;BME280;53303;47.476;8.084;2024-02-21T09:19:15;95825.41;;;18.98;44.14
66486;BME280;53303;47.476;8.084;2024-02-21T09:21:43;95823.91;;;18.97;43.95
66486;BME280;53303;47.476;8.084;2024-02-21T09:24:08;95826.44;;;19.00;44.05
66486;BME280;53303;47.476;8.084;2024-02-21T09:26:38;95826.44;;;19.00;43.85
66486;BME280;53303;47.476;8.084;2024-02-21T09:29:06;95826.44;;;19.00;43.92
66486;BME280;53303;47.476;8.084;2024-02-21T09:31:33;95824.91;;;18.99;44.07
66486;BME280;53303;47.476;8.084;2024-02-21T09:33:58;95821.88;;;18.97;44.01
66486;BME280;53303;47.476;8.084;2024-02-21T09:36:26;95822.41;;;19.01;44.11
66486;BME280;53303;47.476;8.084;2024-02-21T09:38:54;95819.16;;;19.03;44.02
66486;BME280;53303;47.476;8.084;2024-02-21T09:41:25;95822.41;;;19.01;44.12
66486;BME280;53303;47.476;8.084;2024-02-21T09:43:52;95811.84;;;19.00;44.06
66486;BME280;53303;47.476;8.084;2024-02-21T09:46:19;95808.84;;;19.03;44.19
66486;BME280;53303;47.476;8.084;2024-02-21T09:51:30;95805.56;;;18.99;44.16
66486;BME280;53303;47.476;8.084;2024-02-21T09:53:58;95809.84;;;19.00;44.07
66486;BME280;53303;47.476;8.084;2024-02-21T09:56:24;95809.06;;;19.00;44.23
66486;BME280;53303;47.476;8.084;2024-02-21T09:58:50;95808.81;;;18.98;44.52
66486;BME280;53303;47.476;8.084;2024-02-21T10:01:15;95798.31;;;19.02;44.25
66486;BME280;53303;47.476;8.084;2024-02-21T10:03:41;95800.78;;;19.00;44.05
66486;BME280;53303;47.476;8.084;2024-02-21T10:06:09;95793.53;;;19.02;44.28
66486;BME280;53303;47.476;8.084;2024-02-21T10:08:34;95794.50;;;18.99;44.18
66486;BME280;53303;47.476;8.084;2024-02-21T10:11:02;95797.78;;;19.03;44.15
66486;BME280;53303;47.476;8.084;2024-02-21T10:13:30;95783.44;;;18.99;44.20
66486;BME280;53303;47.476;8.084;2024-02-21T10:16:08;95781.19;;;19.03;44.27
66486;BME280;53303;47.476;8.084;2024-02-21T10:18:34;95770.88;;;18.98;44.17
66486;BME280;53303;47.476;8.084;2024-02-21T10:21:03;95778.19;;;19.07;44.28
66486;BME280;53303;47.476;8.084;2024-02-21T10:23:40;95776.97;;;19.08;44.08
66486;BME280;53303;47.476;8.084;2024-02-21T10:26:07;95776.44;;;19.04;44.33
66486;BME280;53303;47.476;8.084;2024-02-21T10:28:32;95776.22;;;19.08;44.10
66486;BME280;53303;47.476;8.084;2024-02-21T10:30:58;95771.91;;;19.07;44.28
66486;BME280;53303;47.476;8.084;2024-02-21T10:33:23;95769.91;;;19.07;44.28
66486;BME280;53303;47.476;8.084;2024-02-21T10:35:53;95772.97;;;19.09;44.19
66486;BME280;53303;47.476;8.084;2024-02-21T10:38:18;95774.19;;;19.08;44.31
66486;BME280;53303;47.476;8.084;2024-02-21T10:40:46;95769.66;;;19.11;44.36
66486;BME280;53303;47.476;8.084;2024-02-21T10:43:13;95768.44;;;19.12;44.42
66486;BME280;53303;47.476;8.084;2024-02-21T10:45:39;95754.84;;;19.08;44.40
66486;BME280;53303;47.476;8.084;2024-02-21T10:48:13;95766.91;;;19.11;44.43
66486;BME280;53303;47.476;8.084;2024-02-21T10:50:56;95756.06;;;19.07;44.23
66486;BME280;53303;47.476;8.084;2024-02-21T10:53:34;95754.59;;;19.12;44.31
66486;BME280;53303;47.476;8.084;2024-02-21T10:58:45;95745.53;;;19.06;44.65
66486;BME280;53303;47.476;8.084;2024-02-21T11:01:12;95732.72;;;19.08;44.42
66486;BME280;53303;47.476;8.084;2024-02-21T11:03:43;95724.41;;;19.08;44.46
66486;BME280;53303;47.476;8.084;2024-02-21T11:06:11;95733.72;;;19.11;44.42
66486;BME280;53303;47.476;8.084;2024-02-21T11:08:37;95738.28;;;19.14;44.50
66486;BME280;53303;47.476;8.084;2024-02-21T11:11:04;95722.41;;;19.09;44.44
66486;BME280;53303;47.476;8.084;2024-02-21T11:13:31;95729.47;;;19.15;44.39
66486;BME280;53303;47.476;8.084;2024-02-21T11:16:22;95720.19;;;19.13;44.63
66486;BME280;53303;47.476;8.084;2024-02-21T11:18:48;95714.66;;;19.13;44.68
66486;BME280;53303;47.476;8.084;2024-02-21T11:21:15;95712.13;;;19.15;44.58
66486;BME280;53303;47.476;8.084;2024-02-21T11:23:40;95704.31;;;19.13;44.44
66486;BME280;53303;47.476;8.084;2024-02-21T11:28:32;95700.59;;;19.22;44.99
66486;BME280;53303;47.476;8.084;2024-02-21T11:31:27;95699.81;;;19.16;44.61
66486;BME280;53303;47.476;8.084;2024-02-21T11:34:03;95694.56;;;19.18;44.62
66486;BME280;53303;47.476;8.084;2024-02-21T11:36:29;95680.22;;;19.19;44.45
66486;BME280;53303;47.476;8.084;2024-02-21T11:39:03;95670.91;;;19.17;44.35
66486;BME280;53303;47.476;8.084;2024-02-21T11:41:29;95661.06;;;19.16;44.48
66486;BME280;53303;47.476;8.084;2024-02-21T11:43:55;95668.66;;;19.21;44.52
66486;BME280;53303;47.476;8.084;2024-02-21T11:46:21;95669.94;;;19.26;44.65
66486;BME280;53303;47.476;8.084;2024-02-21T11:48:46;95667.19;;;19.26;44.55
66486;BME280;53303;47.476;8.084;2024-02-21T11:51:24;95651.31;;;19.20;44.40
66486;BME280;53303;47.476;8.084;2024-02-21T11:53:52;95651.31;;;19.20;44.42
66486;BME280;53303;47.476;8.084;2024-02-21T11:56:18;95652.31;;;19.23;44.49
66486;BME280;53303;47.476;8.084;2024-02-21T11:58:47;95650.34;;;19.29;44.50
66486;BME280;53303;47.476;8.084;2024-02-21T12:01:13;95634.47;;;19.24;44.51
66486;BME280;53303;47.476;8.084;2024-02-21T12:03:39;95618.84;;;19.21;44.84
66486;BME280;53303;47.476;8.084;2024-02-21T12:06:07;95628.47;;;19.31;44.52
66486;BME280;53303;47.476;8.084;2024-02-21T12:08:44;95621.38;;;19.25;44.45
66486;BME280;53303;47.476;8.084;2024-02-21T12:11:36;95623.66;;;19.26;44.43
66486;BME280;53303;47.476;8.084;2024-02-21T12:14:03;95612.59;;;19.32;44.54
66486;BME280;53303;47.476;8.084;2024-02-21T12:16:31;95617.66;;;19.33;44.52
66486;BME280;53303;47.476;8.084;2024-02-21T12:18:58;95605.34;;;19.34;44.57
66486;BME280;53303;47.476;8.084;2024-02-21T12:21:30;95596.00;;;19.32;44.67
66486;BME280;53303;47.476;8.084;2024-02-21T12:23:58;95599.31;;;19.36;44.18
66486;BME280;53303;47.476;8.084;2024-02-21T12:26:24;95588.50;;;19.38;44.42
66486;BME280;53303;47.476;8.084;2024-02-21T12:28:49;95582.72;;;19.36;44.53
66486;BME280;53303;47.476;8.084;2024-02-21T12:31:15;95579.41;;;19.37;44.76
66486;BME280;53303;47.476;8.084;2024-02-21T12:33:42;95569.38;;;19.40;44.54
66486;BME280;53303;47.476;8.084;2024-02-21T12:36:07;95552.50;;;19.32;44.45
66486;BME280;53303;47.476;8.084;2024-02-21T12:38:36;95559.06;;;19.40;44.62
66486;BME280;53303;47.476;8.084;2024-02-21T12:41:01;95564.84;;;19.43;44.46
66486;BME280;53303;47.476;8.084;2024-02-21T12:43:27;95555.78;;;19.42;44.55
66486;BME280;53303;47.476;8.084;2024-02-21T12:45:53;95539.69;;;19.40;44.61
66486;BME280;53303;47.476;8.084;2024-02-21T12:48:18;95537.41;;;19.45;44.53
66486;BME280;53303;47.476;8.084;2024-02-21T12:50:49;95527.88;;;19.46;44.51
66486;BME280;53303;47.476;8.084;2024-02-21T12:53:21;95531.88;;;19.45;44.58
66486;BME280;53303;47.476;8.084;2024-02-21T12:55:48;95522.59;;;19.48;44.57
66486;BME280;53303;47.476;8.084;2024-02-21T12:58:18;95514.03;;;19.46;44.60
66486;BME280;53303;47.476;8.084;2024-02-21T13:00:46;95505.75;;;19.46;44.54
66486;BME280;53303;47.476;8.084;2024-02-21T13:03:11;95505.25;;;19.47;44.57
66486;BME280;53303;47.476;8.084;2024-02-21T13:05:37;95510.28;;;19.49;44.48
66486;BME280;53303;47.476;8.084;2024-02-21T13:08:06;95499.22;;;19.49;44.57
66486;BME280;53303;47.476;8.084;2024-02-21T13:10:32;95498.97;;;19.52;44.59